sensor_id;sensor_type;location;lat;lon;timestamp;P1;durP1;ratioP1;P2;durP2;ratioP2
12467;SDS011;57850;52.922;6.256;2023-03-19T00:01:46;16.10;;;12.10;;
12467;SDS011;57850;52.922;6.256;2023-03-19T00:04:12;15.60;;;12.77;;
12467;SDS011;57850;52.922;6.256;2023-03-19T00:06:40;16.02;;;13.55;;
12467;SDS011;57850;52.922;6.256;2023-03-19T00:09:06;17.15;;;14.13;;
12467;SDS011;57850;52.922;6.256;2023-03-19T00:11:33;20.20;;;14.13;;
12467;SDS011;57850;52.922;6.256;2023-03-19T00:14:01;17.52;;;14.60;;
12467;SDS011;57850;52.922;6.256;2023-03-19T00:16:28;16.33;;;13.57;;
12467;SDS011;57850;52.922;6.256;2023-03-19T00:18:54;16.10;;;14.00;;
12467;SDS011;57850;52.922;6.256;2023-03-19T00:21:21;19.45;;;15.05;;
12467;SDS011;57850;52.922;6.256;2023-03-19T00:23:48;17.40;;;14.10;;
12467;SDS011;57850;52.922;6.256;2023-03-19T00:26:16;20.63;;;15.85;;
12467;SDS011;57850;52.922;6.256;2023-03-19T00:28:42;19.20;;;15.35;;
12467;SDS011;57850;52.922;6.256;2023-03-19T00:31:14;18.38;;;16.08;;
12467;SDS011;57850;52.922;6.256;2023-03-19T00:33:42;18.90;;;16.13;;
12467;SDS011;57850;52.922;6.256;2023-03-19T00:36:09;19.90;;;16.05;;
12467;SDS011;57850;52.922;6.256;2023-03-19T00:38:36;22.08;;;16.48;;
12467;SDS011;57850;52.922;6.256;2023-03-19T00:41:03;20.55;;;16.98;;
12467;SDS011;57850;52.922;6.256;2023-03-19T00:43:31;19.83;;;16.15;;
12467;SDS011;57850;52.922;6.256;2023-03-19T00:45:58;19.40;;;15.75;;
12467;SDS011;57850;52.922;6.256;2023-03-19T00:48:26;20.88;;;15.93;;
12467;SDS011;57850;52.922;6.256;2023-03-19T00:50:53;19.40;;;15.98;;
12467;SDS011;57850;52.922;6.256;2023-03-19T00:53:19;21.58;;;16.08;;
12467;SDS011;57850;52.922;6.256;2023-03-19T00:55:46;22.08;;;16.40;;
12467;SDS011;57850;52.922;6.256;2023-03-19T00:58:13;20.35;;;15.70;;
12467;SDS011;57850;52.922;6.256;2023-03-19T01:00:39;19.55;;;15.18;;
12467;SDS011;57850;52.922;6.256;2023-03-19T01:03:06;17.23;;;14.43;;
12467;SDS011;57850;52.922;6.256;2023-03-19T01:05:34;15.65;;;12.55;;
12467;SDS011;57850;52.922;6.256;2023-03-19T01:08:01;17.50;;;13.57;;
12467;SDS011;57850;52.922;6.256;2023-03-19T01:10:28;15.75;;;13.68;;
12467;SDS011;57850;52.922;6.256;2023-03-19T01:12:54;18.88;;;14.23;;
12467;SDS011;57850;52.922;6.256;2023-03-19T01:15:21;16.10;;;13.07;;
12467;SDS011;57850;52.922;6.256;2023-03-19T01:17:48;20.50;;;14.15;;
12467;SDS011;57850;52.922;6.256;2023-03-19T01:20:14;18.67;;;14.05;;
12467;SDS011;57850;52.922;6.256;2023-03-19T01:22:44;14.98;;;13.43;;
12467;SDS011;57850;52.922;6.256;2023-03-19T01:25:12;14.45;;;12.27;;
12467;SDS011;57850;52.922;6.256;2023-03-19T01:27:40;13.77;;;12.27;;
12467;SDS011;57850;52.922;6.256;2023-03-19T01:30:07;17.85;;;12.23;;
12467;SDS011;57850;52.922;6.256;2023-03-19T01:32:34;14.90;;;11.48;;
12467;SDS011;57850;52.922;6.256;2023-03-19T01:35:01;13.43;;;10.25;;
12467;SDS011;57850;52.922;6.256;2023-03-19T01:37:28;12.82;;;9.98;;
12467;SDS011;57850;52.922;6.256;2023-03-19T01:39:56;12.95;;;10.23;;
12467;SDS011;57850;52.922;6.256;2023-03-19T01:42:22;11.60;;;9.68;;
12467;SDS011;57850;52.922;6.256;2023-03-19T01:44:49;10.88;;;9.18;;
12467;SDS011;57850;52.922;6.256;2023-03-19T01:47:17;13.50;;;9.70;;
12467;SDS011;57850;52.922;6.256;2023-03-19T01:49:50;13.80;;;9.50;;
12467;SDS011;57850;52.922;6.256;2023-03-19T01:52:19;15.02;;;10.05;;
12467;SDS011;57850;52.922;6.256;2023-03-19T01:54:46;11.63;;;9.00;;
12467;SDS011;57850;52.922;6.256;2023-03-19T01:57:15;11.43;;;8.82;;
12467;SDS011;57850;52.922;6.256;2023-03-19T01:59:47;11.73;;;9.30;;
12467;SDS011;57850;52.922;6.256;2023-03-19T02:02:17;11.40;;;9.05;;
12467;SDS011;57850;52.922;6.256;2023-03-19T02:04:50;9.40;;;8.10;;
12467;SDS011;57850;52.922;6.256;2023-03-19T02:07:21;9.57;;;7.82;;
12467;SDS011;57850;52.922;6.256;2023-03-19T02:09:48;10.02;;;7.55;;
12467;SDS011;57850;52.922;6.256;2023-03-19T02:12:16;8.23;;;7.03;;
12467;SDS011;57850;52.922;6.256;2023-03-19T02:14:43;11.15;;;7.15;;
12467;SDS011;57850;52.922;6.256;2023-03-19T02:17:09;8.98;;;7.28;;
12467;SDS011;57850;52.922;6.256;2023-03-19T02:19:37;9.63;;;7.28;;
12467;SDS011;57850;52.922;6.256;2023-03-19T02:22:08;7.53;;;6.53;;
12467;SDS011;57850;52.922;6.256;2023-03-19T02:24:38;7.93;;;6.60;;
12467;SDS011;57850;52.922;6.256;2023-03-19T02:27:12;6.47;;;5.85;;
12467;SDS011;57850;52.922;6.256;2023-03-19T02:29:38;7.57;;;6.05;;
12467;SDS011;57850;52.922;6.256;2023-03-19T02:32:06;7.00;;;5.78;;
12467;SDS011;57850;52.922;6.256;2023-03-19T02:34:33;5.57;;;5.07;;
12467;SDS011;57850;52.922;6.256;2023-03-19T02:37:03;8.02;;;4.90;;
12467;SDS011;57850;52.922;6.256;2023-03-19T02:39:35;5.63;;;4.75;;
12467;SDS011;57850;52.922;6.256;2023-03-19T02:42:08;6.55;;;5.25;;
12467;SDS011;57850;52.922;6.256;2023-03-19T02:44:37;5.07;;;4.57;;
12467;SDS011;57850;52.922;6.256;2023-03-19T02:47:04;5.00;;;4.50;;
12467;SDS011;57850;52.922;6.256;2023-03-19T02:49:31;6.47;;;4.60;;
12467;SDS011;57850;52.922;6.256;2023-03-19T02:51:57;5.82;;;4.60;;
12467;SDS011;57850;52.922;6.256;2023-03-19T02:54:24;7.85;;;5.28;;
12467;SDS011;57850;52.922;6.256;2023-03-19T02:56:51;6.32;;;4.57;;
12467;SDS011;57850;52.922;6.256;2023-03-19T02:59:17;7.93;;;4.45;;
12467;SDS011;57850;52.922;6.256;2023-03-19T03:01:46;6.10;;;4.30;;
12467;SDS011;57850;52.922;6.256;2023-03-19T03:04:12;5.22;;;4.45;;
12467;SDS011;57850;52.922;6.256;2023-03-19T03:06:41;6.35;;;3.97;;
12467;SDS011;57850;52.922;6.256;2023-03-19T03:09:07;5.43;;;4.07;;
12467;SDS011;57850;52.922;6.256;2023-03-19T03:11:34;7.55;;;4.55;;
12467;SDS011;57850;52.922;6.256;2023-03-19T03:14:01;4.50;;;4.07;;
12467;SDS011;57850;52.922;6.256;2023-03-19T03:16:28;5.40;;;4.78;;
12467;SDS011;57850;52.922;6.256;2023-03-19T03:18:56;5.88;;;4.22;;
12467;SDS011;57850;52.922;6.256;2023-03-19T03:21:22;5.05;;;4.28;;
12467;SDS011;57850;52.922;6.256;2023-03-19T03:23:49;5.15;;;4.13;;
12467;SDS011;57850;52.922;6.256;2023-03-19T03:26:16;4.35;;;3.95;;
12467;SDS011;57850;52.922;6.256;2023-03-19T03:28:43;5.32;;;4.07;;
12467;SDS011;57850;52.922;6.256;2023-03-19T03:31:09;7.88;;;4.80;;
12467;SDS011;57850;52.922;6.256;2023-03-19T03:33:37;5.00;;;4.15;;
12467;SDS011;57850;52.922;6.256;2023-03-19T03:36:06;4.95;;;4.40;;
12467;SDS011;57850;52.922;6.256;2023-03-19T03:38:33;6.60;;;5.00;;
12467;SDS011;57850;52.922;6.256;2023-03-19T03:41:00;5.85;;;5.10;;
12467;SDS011;57850;52.922;6.256;2023-03-19T03:43:27;9.38;;;5.32;;
12467;SDS011;57850;52.922;6.256;2023-03-19T03:45:54;7.85;;;5.68;;
12467;SDS011;57850;52.922;6.256;2023-03-19T03:48:20;8.48;;;5.95;;
12467;SDS011;57850;52.922;6.256;2023-03-19T03:50:47;6.40;;;5.63;;
12467;SDS011;57850;52.922;6.256;2023-03-19T03:53:15;6.38;;;5.53;;
12467;SDS011;57850;52.922;6.256;2023-03-19T03:55:42;7.88;;;6.00;;
12467;SDS011;57850;52.922;6.256;2023-03-19T03:58:08;7.65;;;6.28;;
12467;SDS011;57850;52.922;6.256;2023-03-19T04:00:37;6.88;;;5.53;;
12467;SDS011;57850;52.922;6.256;2023-03-19T04:03:03;7.60;;;6.10;;
12467;SDS011;57850;52.922;6.256;2023-03-19T04:05:30;9.02;;;7.15;;
12467;SDS011;57850;52.922;6.256;2023-03-19T04:07:56;9.43;;;6.93;;
12467;SDS011;57850;52.922;6.256;2023-03-19T04:10:24;8.40;;;6.78;;
12467;SDS011;57850;52.922;6.256;2023-03-19T04:12:51;8.40;;;7.10;;
12467;SDS011;57850;52.922;6.256;2023-03-19T04:15:18;10.77;;;6.80;;
12467;SDS011;57850;52.922;6.256;2023-03-19T04:17:45;7.57;;;6.72;;
12467;SDS011;57850;52.922;6.256;2023-03-19T04:20:12;11.02;;;7.20;;
12467;SDS011;57850;52.922;6.256;2023-03-19T04:22:40;9.13;;;7.53;;
12467;SDS011;57850;52.922;6.256;2023-03-19T04:25:07;8.18;;;6.35;;
12467;SDS011;57850;52.922;6.256;2023-03-19T04:27:35;9.23;;;7.28;;
12467;SDS011;57850;52.922;6.256;2023-03-19T04:30:02;10.27;;;6.95;;
12467;SDS011;57850;52.922;6.256;2023-03-19T04:32:29;9.25;;;7.70;;
12467;SDS011;57850;52.922;6.256;2023-03-19T04:34:57;9.30;;;7.75;;
12467;SDS011;57850;52.922;6.256;2023-03-19T04:37:24;11.00;;;7.50;;
12467;SDS011;57850;52.922;6.256;2023-03-19T04:39:51;8.85;;;6.85;;
12467;SDS011;57850;52.922;6.256;2023-03-19T04:42:18;10.43;;;7.65;;
12467;SDS011;57850;52.922;6.256;2023-03-19T04:44:46;11.98;;;8.43;;
12467;SDS011;57850;52.922;6.256;2023-03-19T04:47:13;13.23;;;7.93;;
12467;SDS011;57850;52.922;6.256;2023-03-19T04:49:40;11.40;;;8.57;;
12467;SDS011;57850;52.922;6.256;2023-03-19T04:52:07;8.77;;;7.65;;
12467;SDS011;57850;52.922;6.256;2023-03-19T04:54:33;10.35;;;7.97;;
12467;SDS011;57850;52.922;6.256;2023-03-19T04:57:00;10.75;;;8.18;;
12467;SDS011;57850;52.922;6.256;2023-03-19T04:59:27;8.95;;;8.05;;
12467;SDS011;57850;52.922;6.256;2023-03-19T05:01:54;9.95;;;7.30;;
12467;SDS011;57850;52.922;6.256;2023-03-19T05:04:21;12.18;;;8.77;;
12467;SDS011;57850;52.922;6.256;2023-03-19T05:06:49;11.05;;;9.10;;
12467;SDS011;57850;52.922;6.256;2023-03-19T05:09:15;11.90;;;9.10;;
12467;SDS011;57850;52.922;6.256;2023-03-19T05:11:42;12.32;;;9.07;;
12467;SDS011;57850;52.922;6.256;2023-03-19T05:14:08;10.23;;;8.82;;
12467;SDS011;57850;52.922;6.256;2023-03-19T05:16:35;13.15;;;9.13;;
12467;SDS011;57850;52.922;6.256;2023-03-19T05:19:04;11.82;;;9.10;;
12467;SDS011;57850;52.922;6.256;2023-03-19T05:21:30;13.38;;;9.13;;
12467;SDS011;57850;52.922;6.256;2023-03-19T05:23:57;11.65;;;9.00;;
12467;SDS011;57850;52.922;6.256;2023-03-19T05:26:24;10.77;;;8.73;;
12467;SDS011;57850;52.922;6.256;2023-03-19T05:28:51;11.50;;;9.23;;
12467;SDS011;57850;52.922;6.256;2023-03-19T05:31:17;11.43;;;9.05;;
12467;SDS011;57850;52.922;6.256;2023-03-19T05:33:44;10.93;;;9.45;;
12467;SDS011;57850;52.922;6.256;2023-03-19T05:36:12;9.65;;;8.65;;
12467;SDS011;57850;52.922;6.256;2023-03-19T05:38:39;11.45;;;9.18;;
12467;SDS011;57850;52.922;6.256;2023-03-19T05:41:05;11.32;;;8.48;;
12467;SDS011;57850;52.922;6.256;2023-03-19T05:43:32;11.68;;;8.27;;
12467;SDS011;57850;52.922;6.256;2023-03-19T05:45:59;12.32;;;8.75;;
12467;SDS011;57850;52.922;6.256;2023-03-19T05:48:25;10.88;;;8.27;;
12467;SDS011;57850;52.922;6.256;2023-03-19T05:50:52;11.32;;;8.65;;
12467;SDS011;57850;52.922;6.256;2023-03-19T05:53:20;10.52;;;8.70;;
12467;SDS011;57850;52.922;6.256;2023-03-19T05:55:47;12.18;;;8.73;;
12467;SDS011;57850;52.922;6.256;2023-03-19T05:58:14;14.93;;;9.05;;
12467;SDS011;57850;52.922;6.256;2023-03-19T06:00:42;12.90;;;8.77;;
12467;SDS011;57850;52.922;6.256;2023-03-19T06:03:09;10.15;;;8.40;;
12467;SDS011;57850;52.922;6.256;2023-03-19T06:05:35;11.48;;;8.52;;
12467;SDS011;57850;52.922;6.256;2023-03-19T06:08:02;13.00;;;8.48;;
12467;SDS011;57850;52.922;6.256;2023-03-19T06:10:30;11.15;;;8.20;;
12467;SDS011;57850;52.922;6.256;2023-03-19T06:12:57;10.75;;;9.05;;
12467;SDS011;57850;52.922;6.256;2023-03-19T06:15:23;13.13;;;9.07;;
12467;SDS011;57850;52.922;6.256;2023-03-19T06:17:50;13.77;;;8.98;;
12467;SDS011;57850;52.922;6.256;2023-03-19T06:20:17;13.38;;;10.02;;
12467;SDS011;57850;52.922;6.256;2023-03-19T06:22:44;13.93;;;9.95;;
12467;SDS011;57850;52.922;6.256;2023-03-19T06:25:10;12.43;;;8.93;;
12467;SDS011;57850;52.922;6.256;2023-03-19T06:27:39;12.55;;;9.20;;
12467;SDS011;57850;52.922;6.256;2023-03-19T06:30:06;10.40;;;8.07;;
12467;SDS011;57850;52.922;6.256;2023-03-19T06:32:33;9.63;;;8.48;;
12467;SDS011;57850;52.922;6.256;2023-03-19T06:35:01;12.73;;;9.05;;
12467;SDS011;57850;52.922;6.256;2023-03-19T06:37:28;11.05;;;8.73;;
12467;SDS011;57850;52.922;6.256;2023-03-19T06:39:55;10.98;;;9.40;;
12467;SDS011;57850;52.922;6.256;2023-03-19T06:42:22;16.65;;;9.07;;
12467;SDS011;57850;52.922;6.256;2023-03-19T06:44:50;12.27;;;9.23;;
12467;SDS011;57850;52.922;6.256;2023-03-19T06:47:17;12.15;;;9.38;;
12467;SDS011;57850;52.922;6.256;2023-03-19T06:49:43;10.43;;;9.00;;
12467;SDS011;57850;52.922;6.256;2023-03-19T06:52:10;11.15;;;8.50;;
12467;SDS011;57850;52.922;6.256;2023-03-19T06:54:39;11.70;;;9.15;;
12467;SDS011;57850;52.922;6.256;2023-03-19T06:57:06;11.10;;;9.25;;
12467;SDS011;57850;52.922;6.256;2023-03-19T06:59:32;11.15;;;9.13;;
12467;SDS011;57850;52.922;6.256;2023-03-19T07:02:00;11.35;;;8.95;;
12467;SDS011;57850;52.922;6.256;2023-03-19T07:04:27;15.57;;;10.43;;
12467;SDS011;57850;52.922;6.256;2023-03-19T07:06:54;14.05;;;10.32;;
12467;SDS011;57850;52.922;6.256;2023-03-19T07:09:20;12.52;;;9.63;;
12467;SDS011;57850;52.922;6.256;2023-03-19T07:11:47;12.85;;;10.00;;
12467;SDS011;57850;52.922;6.256;2023-03-19T07:14:14;13.30;;;11.45;;
12467;SDS011;57850;52.922;6.256;2023-03-19T07:16:40;14.75;;;11.43;;
12467;SDS011;57850;52.922;6.256;2023-03-19T07:19:09;15.60;;;11.48;;
12467;SDS011;57850;52.922;6.256;2023-03-19T07:21:35;14.38;;;12.55;;
12467;SDS011;57850;52.922;6.256;2023-03-19T07:24:02;14.32;;;12.05;;
12467;SDS011;57850;52.922;6.256;2023-03-19T07:26:29;17.33;;;12.63;;
12467;SDS011;57850;52.922;6.256;2023-03-19T07:28:55;17.60;;;13.38;;
12467;SDS011;57850;52.922;6.256;2023-03-19T07:31:22;20.90;;;13.85;;
12467;SDS011;57850;52.922;6.256;2023-03-19T07:33:49;18.25;;;12.98;;
12467;SDS011;57850;52.922;6.256;2023-03-19T07:36:16;19.88;;;12.38;;
12467;SDS011;57850;52.922;6.256;2023-03-19T07:38:43;16.70;;;12.63;;
12467;SDS011;57850;52.922;6.256;2023-03-19T07:41:10;18.30;;;13.63;;
12467;SDS011;57850;52.922;6.256;2023-03-19T07:43:36;17.25;;;12.63;;
12467;SDS011;57850;52.922;6.256;2023-03-19T07:46:03;15.30;;;12.18;;
12467;SDS011;57850;52.922;6.256;2023-03-19T07:48:30;17.27;;;12.75;;
12467;SDS011;57850;52.922;6.256;2023-03-19T07:50:57;16.75;;;12.75;;
12467;SDS011;57850;52.922;6.256;2023-03-19T07:53:25;15.40;;;12.43;;
12467;SDS011;57850;52.922;6.256;2023-03-19T07:55:51;16.98;;;12.43;;
12467;SDS011;57850;52.922;6.256;2023-03-19T07:58:18;14.90;;;12.32;;
12467;SDS011;57850;52.922;6.256;2023-03-19T08:00:45;16.15;;;12.20;;
12467;SDS011;57850;52.922;6.256;2023-03-19T08:03:11;13.50;;;11.20;;
12467;SDS011;57850;52.922;6.256;2023-03-19T08:05:39;15.10;;;12.23;;
12467;SDS011;57850;52.922;6.256;2023-03-19T08:08:06;16.58;;;11.93;;
12467;SDS011;57850;52.922;6.256;2023-03-19T08:10:34;13.80;;;11.68;;
12467;SDS011;57850;52.922;6.256;2023-03-19T08:13:01;13.55;;;10.80;;
12467;SDS011;57850;52.922;6.256;2023-03-19T08:15:29;13.35;;;10.40;;
12467;SDS011;57850;52.922;6.256;2023-03-19T08:17:58;12.57;;;10.75;;
12467;SDS011;57850;52.922;6.256;2023-03-19T08:20:25;12.93;;;10.85;;
12467;SDS011;57850;52.922;6.256;2023-03-19T08:22:51;13.43;;;11.02;;
12467;SDS011;57850;52.922;6.256;2023-03-19T08:25:18;14.82;;;11.43;;
12467;SDS011;57850;52.922;6.256;2023-03-19T08:27:46;13.55;;;10.60;;
12467;SDS011;57850;52.922;6.256;2023-03-19T08:30:13;13.88;;;11.10;;
12467;SDS011;57850;52.922;6.256;2023-03-19T08:32:40;12.75;;;10.05;;
12467;SDS011;57850;52.922;6.256;2023-03-19T08:35:09;12.55;;;10.40;;
12467;SDS011;57850;52.922;6.256;2023-03-19T08:37:36;15.23;;;10.25;;
12467;SDS011;57850;52.922;6.256;2023-03-19T08:40:03;13.75;;;10.70;;
12467;SDS011;57850;52.922;6.256;2023-03-19T08:42:30;13.88;;;10.60;;
12467;SDS011;57850;52.922;6.256;2023-03-19T08:44:58;13.57;;;10.57;;
12467;SDS011;57850;52.922;6.256;2023-03-19T08:47:24;13.68;;;9.95;;
12467;SDS011;57850;52.922;6.256;2023-03-19T08:49:51;12.07;;;10.40;;
12467;SDS011;57850;52.922;6.256;2023-03-19T08:52:18;13.02;;;10.13;;
12467;SDS011;57850;52.922;6.256;2023-03-19T08:54:45;13.93;;;9.98;;
12467;SDS011;57850;52.922;6.256;2023-03-19T08:57:12;12.63;;;10.07;;
12467;SDS011;57850;52.922;6.256;2023-03-19T08:59:39;13.70;;;10.23;;
12467;SDS011;57850;52.922;6.256;2023-03-19T09:02:09;13.65;;;9.98;;
12467;SDS011;57850;52.922;6.256;2023-03-19T09:04:38;12.02;;;9.45;;
12467;SDS011;57850;52.922;6.256;2023-03-19T09:07:05;12.73;;;9.95;;
12467;SDS011;57850;52.922;6.256;2023-03-19T09:09:32;10.65;;;9.50;;
12467;SDS011;57850;52.922;6.256;2023-03-19T09:11:59;13.05;;;9.05;;
12467;SDS011;57850;52.922;6.256;2023-03-19T09:14:26;10.57;;;9.20;;
12467;SDS011;57850;52.922;6.256;2023-03-19T09:16:52;12.80;;;10.13;;
12467;SDS011;57850;52.922;6.256;2023-03-19T09:19:21;12.90;;;10.50;;
12467;SDS011;57850;52.922;6.256;2023-03-19T09:21:47;13.43;;;10.32;;
12467;SDS011;57850;52.922;6.256;2023-03-19T09:24:14;11.90;;;10.05;;
12467;SDS011;57850;52.922;6.256;2023-03-19T09:26:41;13.20;;;9.65;;
12467;SDS011;57850;52.922;6.256;2023-03-19T09:29:10;13.45;;;10.77;;
12467;SDS011;57850;52.922;6.256;2023-03-19T09:31:38;12.68;;;10.70;;
12467;SDS011;57850;52.922;6.256;2023-03-19T09:34:05;12.13;;;10.52;;
12467;SDS011;57850;52.922;6.256;2023-03-19T09:36:34;14.68;;;11.40;;
12467;SDS011;57850;52.922;6.256;2023-03-19T09:39:02;15.25;;;10.98;;
12467;SDS011;57850;52.922;6.256;2023-03-19T09:41:31;13.27;;;10.45;;
12467;SDS011;57850;52.922;6.256;2023-03-19T09:44:04;14.05;;;10.73;;
12467;SDS011;57850;52.922;6.256;2023-03-19T09:46:37;14.90;;;10.68;;
12467;SDS011;57850;52.922;6.256;2023-03-19T09:49:11;14.07;;;11.55;;
12467;SDS011;57850;52.922;6.256;2023-03-19T09:51:49;17.67;;;12.18;;
12467;SDS011;57850;52.922;6.256;2023-03-19T09:54:28;15.50;;;12.65;;
12467;SDS011;57850;52.922;6.256;2023-03-19T09:56:57;15.77;;;12.68;;
12467;SDS011;57850;52.922;6.256;2023-03-19T09:59:25;16.60;;;12.73;;
12467;SDS011;57850;52.922;6.256;2023-03-19T10:01:56;15.90;;;12.75;;
12467;SDS011;57850;52.922;6.256;2023-03-19T10:07:31;15.80;;;12.98;;
12467;SDS011;57850;52.922;6.256;2023-03-19T10:10:19;16.60;;;12.98;;
12467;SDS011;57850;52.922;6.256;2023-03-19T10:13:01;15.15;;;12.77;;
12467;SDS011;57850;52.922;6.256;2023-03-19T10:15:39;15.48;;;12.23;;
12467;SDS011;57850;52.922;6.256;2023-03-19T10:18:08;16.42;;;13.80;;
12467;SDS011;57850;52.922;6.256;2023-03-19T10:20:42;17.67;;;14.13;;
12467;SDS011;57850;52.922;6.256;2023-03-19T10:23:21;17.17;;;13.75;;
12467;SDS011;57850;52.922;6.256;2023-03-19T10:25:55;14.63;;;12.50;;
12467;SDS011;57850;52.922;6.256;2023-03-19T10:28:25;18.10;;;13.88;;
12467;SDS011;57850;52.922;6.256;2023-03-19T10:30:54;15.98;;;13.63;;
12467;SDS011;57850;52.922;6.256;2023-03-19T10:33:30;17.92;;;13.40;;
12467;SDS011;57850;52.922;6.256;2023-03-19T10:36:04;19.17;;;12.93;;
12467;SDS011;57850;52.922;6.256;2023-03-19T10:38:39;17.17;;;13.88;;
12467;SDS011;57850;52.922;6.256;2023-03-19T10:41:19;18.02;;;13.90;;
12467;SDS011;57850;52.922;6.256;2023-03-19T10:43:53;15.27;;;13.65;;
12467;SDS011;57850;52.922;6.256;2023-03-19T10:46:23;16.92;;;14.13;;
12467;SDS011;57850;52.922;6.256;2023-03-19T10:48:50;19.13;;;14.27;;
12467;SDS011;57850;52.922;6.256;2023-03-19T10:51:17;18.17;;;14.65;;
12467;SDS011;57850;52.922;6.256;2023-03-19T10:53:49;19.90;;;14.63;;
12467;SDS011;57850;52.922;6.256;2023-03-19T10:56:20;18.75;;;14.73;;
12467;SDS011;57850;52.922;6.256;2023-03-19T11:01:44;19.02;;;14.50;;
12467;SDS011;57850;52.922;6.256;2023-03-19T11:04:18;18.63;;;14.45;;
12467;SDS011;57850;52.922;6.256;2023-03-19T11:06:47;18.83;;;14.68;;
12467;SDS011;57850;52.922;6.256;2023-03-19T11:09:20;19.48;;;14.35;;
12467;SDS011;57850;52.922;6.256;2023-03-19T11:11:54;19.90;;;15.57;;
12467;SDS011;57850;52.922;6.256;2023-03-19T11:14:27;22.85;;;15.55;;
12467;SDS011;57850;52.922;6.256;2023-03-19T11:17:02;17.98;;;14.18;;
12467;SDS011;57850;52.922;6.256;2023-03-19T11:19:32;19.70;;;14.95;;
12467;SDS011;57850;52.922;6.256;2023-03-19T11:22:09;20.15;;;14.93;;
12467;SDS011;57850;52.922;6.256;2023-03-19T11:24:47;19.17;;;15.27;;
12467;SDS011;57850;52.922;6.256;2023-03-19T11:27:16;18.95;;;15.23;;
12467;SDS011;57850;52.922;6.256;2023-03-19T11:29:44;21.58;;;15.73;;
12467;SDS011;57850;52.922;6.256;2023-03-19T11:32:14;16.98;;;13.77;;
12467;SDS011;57850;52.922;6.256;2023-03-19T11:34:51;19.13;;;14.35;;
12467;SDS011;57850;52.922;6.256;2023-03-19T11:37:25;16.55;;;13.55;;
12467;SDS011;57850;52.922;6.256;2023-03-19T11:40:04;17.55;;;13.00;;
12467;SDS011;57850;52.922;6.256;2023-03-19T11:45:27;17.63;;;13.38;;
12467;SDS011;57850;52.922;6.256;2023-03-19T11:48:02;17.25;;;13.43;;
12467;SDS011;57850;52.922;6.256;2023-03-19T11:50:46;16.55;;;12.88;;
12467;SDS011;57850;52.922;6.256;2023-03-19T11:53:21;14.65;;;12.63;;
12467;SDS011;57850;52.922;6.256;2023-03-19T11:55:57;15.35;;;13.15;;
12467;SDS011;57850;52.922;6.256;2023-03-19T11:58:40;19.30;;;14.70;;
12467;SDS011;57850;52.922;6.256;2023-03-19T12:01:21;20.25;;;14.48;;
12467;SDS011;57850;52.922;6.256;2023-03-19T12:04:05;18.80;;;14.65;;
12467;SDS011;57850;52.922;6.256;2023-03-19T12:06:57;20.85;;;15.93;;
12467;SDS011;57850;52.922;6.256;2023-03-19T12:09:34;18.95;;;15.23;;
12467;SDS011;57850;52.922;6.256;2023-03-19T12:12:08;25.05;;;18.13;;
12467;SDS011;57850;52.922;6.256;2023-03-19T12:14:47;26.17;;;18.52;;
12467;SDS011;57850;52.922;6.256;2023-03-19T12:17:26;29.67;;;20.90;;
12467;SDS011;57850;52.922;6.256;2023-03-19T12:20:19;31.55;;;20.35;;
12467;SDS011;57850;52.922;6.256;2023-03-19T12:22:58;31.67;;;20.90;;
12467;SDS011;57850;52.922;6.256;2023-03-19T12:25:35;32.85;;;21.17;;
12467;SDS011;57850;52.922;6.256;2023-03-19T12:28:15;29.52;;;20.38;;
12467;SDS011;57850;52.922;6.256;2023-03-19T12:30:48;28.30;;;20.67;;
12467;SDS011;57850;52.922;6.256;2023-03-19T12:33:35;31.10;;;20.52;;
12467;SDS011;57850;52.922;6.256;2023-03-19T12:36:12;33.38;;;21.00;;
12467;SDS011;57850;52.922;6.256;2023-03-19T12:38:45;27.77;;;19.92;;
12467;SDS011;57850;52.922;6.256;2023-03-19T12:41:17;28.55;;;19.50;;
12467;SDS011;57850;52.922;6.256;2023-03-19T12:43:50;27.15;;;20.35;;
12467;SDS011;57850;52.922;6.256;2023-03-19T12:46:24;27.63;;;20.00;;
12467;SDS011;57850;52.922;6.256;2023-03-19T12:48:55;24.85;;;18.95;;
12467;SDS011;57850;52.922;6.256;2023-03-19T12:51:26;26.23;;;19.58;;
12467;SDS011;57850;52.922;6.256;2023-03-19T12:53:55;21.58;;;16.50;;
12467;SDS011;57850;52.922;6.256;2023-03-19T12:56:27;25.05;;;17.88;;
12467;SDS011;57850;52.922;6.256;2023-03-19T12:59:00;22.00;;;16.20;;
12467;SDS011;57850;52.922;6.256;2023-03-19T13:01:33;26.25;;;18.35;;
12467;SDS011;57850;52.922;6.256;2023-03-19T13:04:04;22.67;;;17.13;;
12467;SDS011;57850;52.922;6.256;2023-03-19T13:06:36;24.98;;;17.40;;
12467;SDS011;57850;52.922;6.256;2023-03-19T13:09:07;26.55;;;18.50;;
12467;SDS011;57850;52.922;6.256;2023-03-19T13:11:43;26.85;;;18.90;;
12467;SDS011;57850;52.922;6.256;2023-03-19T13:14:16;27.90;;;19.45;;
12467;SDS011;57850;52.922;6.256;2023-03-19T13:16:49;27.23;;;18.38;;
12467;SDS011;57850;52.922;6.256;2023-03-19T13:19:23;30.75;;;19.92;;
12467;SDS011;57850;52.922;6.256;2023-03-19T13:21:56;32.58;;;21.52;;
12467;SDS011;57850;52.922;6.256;2023-03-19T13:24:26;34.45;;;21.02;;
12467;SDS011;57850;52.922;6.256;2023-03-19T13:26:55;33.90;;;22.67;;
12467;SDS011;57850;52.922;6.256;2023-03-19T13:29:26;33.72;;;23.23;;
12467;SDS011;57850;52.922;6.256;2023-03-19T13:31:58;33.90;;;21.60;;
12467;SDS011;57850;52.922;6.256;2023-03-19T13:34:27;35.42;;;22.50;;
12467;SDS011;57850;52.922;6.256;2023-03-19T13:36:58;32.63;;;20.25;;
12467;SDS011;57850;52.922;6.256;2023-03-19T13:39:30;32.05;;;21.02;;
12467;SDS011;57850;52.922;6.256;2023-03-19T13:42:09;33.22;;;19.83;;
12467;SDS011;57850;52.922;6.256;2023-03-19T13:44:52;34.35;;;20.42;;
12467;SDS011;57850;52.922;6.256;2023-03-19T13:47:38;33.13;;;20.50;;
12467;SDS011;57850;52.922;6.256;2023-03-19T13:50:10;35.25;;;21.75;;
12467;SDS011;57850;52.922;6.256;2023-03-19T13:52:49;34.88;;;19.13;;
12467;SDS011;57850;52.922;6.256;2023-03-19T13:58:14;30.98;;;18.90;;
12467;SDS011;57850;52.922;6.256;2023-03-19T14:01:04;31.52;;;19.02;;
12467;SDS011;57850;52.922;6.256;2023-03-19T14:03:32;27.90;;;17.83;;
12467;SDS011;57850;52.922;6.256;2023-03-19T14:06:00;30.20;;;17.52;;
12467;SDS011;57850;52.922;6.256;2023-03-19T14:08:28;28.05;;;16.98;;
12467;SDS011;57850;52.922;6.256;2023-03-19T14:10:59;33.75;;;18.00;;
12467;SDS011;57850;52.922;6.256;2023-03-19T14:13:30;31.83;;;18.33;;
12467;SDS011;57850;52.922;6.256;2023-03-19T14:16:03;36.17;;;18.13;;
12467;SDS011;57850;52.922;6.256;2023-03-19T14:18:37;30.30;;;17.10;;
12467;SDS011;57850;52.922;6.256;2023-03-19T14:21:08;24.63;;;14.15;;
12467;SDS011;57850;52.922;6.256;2023-03-19T14:23:39;24.42;;;14.32;;
12467;SDS011;57850;52.922;6.256;2023-03-19T14:26:13;26.15;;;14.68;;
12467;SDS011;57850;52.922;6.256;2023-03-19T14:28:48;26.67;;;14.82;;
12467;SDS011;57850;52.922;6.256;2023-03-19T14:31:27;27.77;;;16.33;;
12467;SDS011;57850;52.922;6.256;2023-03-19T14:34:00;23.30;;;14.77;;
12467;SDS011;57850;52.922;6.256;2023-03-19T14:36:30;23.60;;;14.75;;
12467;SDS011;57850;52.922;6.256;2023-03-19T14:38:57;25.73;;;14.57;;
12467;SDS011;57850;52.922;6.256;2023-03-19T14:41:26;24.73;;;14.98;;
12467;SDS011;57850;52.922;6.256;2023-03-19T14:44:05;24.63;;;15.93;;
12467;SDS011;57850;52.922;6.256;2023-03-19T14:46:52;24.75;;;15.38;;
12467;SDS011;57850;52.922;6.256;2023-03-19T14:49:42;25.45;;;14.98;;
12467;SDS011;57850;52.922;6.256;2023-03-19T14:52:21;25.23;;;15.27;;
12467;SDS011;57850;52.922;6.256;2023-03-19T14:54:49;25.60;;;15.43;;